createdAt,value
2023-03-07T00:00:44.849Z,90.50
2023-03-07T00:03:10.812Z,90.70
2023-03-07T00:05:34.106Z,90.80
2023-03-07T00:07:57.382Z,90.80
2023-03-07T00:10:20.802Z,91.10
2023-03-07T00:12:44.304Z,91.10
2023-03-07T00:15:10.135Z,90.90
2023-03-07T00:17:33.416Z,91.20
2023-03-07T00:19:58.052Z,90.90
2023-03-07T00:22:21.419Z,91.10
2023-03-07T00:24:44.821Z,91.00
2023-03-07T00:27:08.862Z,91.10
2023-03-07T00:29:32.291Z,90.90
2023-03-07T00:31:55.607Z,91.40
2023-03-07T00:34:19.004Z,91.60
2023-03-07T00:36:43.701Z,91.60
2023-03-07T00:39:08.287Z,91.30
2023-03-07T00:41:31.808Z,91.60
2023-03-07T00:43:56.373Z,91.40
2023-03-07T00:46:22.362Z,91.80
2023-03-07T00:48:46.247Z,91.70
2023-03-07T00:51:13.984Z,91.60
2023-03-07T00:53:39.741Z,91.70
2023-03-07T00:56:06.590Z,91.50
2023-03-07T00:58:32.205Z,91.80
2023-03-07T01:00:55.685Z,91.80
2023-03-07T01:03:19.967Z,91.90
2023-03-07T01:05:44.175Z,92.20
2023-03-07T01:08:07.509Z,92.20
2023-03-07T01:10:33.346Z,92.10
2023-03-07T01:12:56.700Z,91.70
2023-03-07T01:15:20.231Z,92.00
2023-03-07T01:17:43.506Z,92.00
2023-03-07T01:20:08.069Z,92.10
2023-03-07T01:22:32.716Z,92.10
2023-03-07T01:24:56.107Z,92.00
2023-03-07T01:27:20.854Z,92.10
2023-03-07T01:29:44.799Z,91.80
2023-03-07T01:32:08.454Z,91.60
2023-03-07T01:34:31.838Z,91.70
2023-03-07T01:36:55.405Z,92.00
2023-03-07T01:39:19.113Z,92.00
2023-03-07T01:41:47.598Z,91.60
2023-03-07T01:44:19.419Z,91.90
2023-03-07T01:46:49.826Z,92.00
2023-03-07T01:49:23.757Z,91.60
2023-03-07T01:51:59.360Z,91.80
2023-03-07T01:54:25.366Z,92.00
2023-03-07T01:56:49.943Z,91.70
2023-03-07T01:59:16.352Z,91.90
2023-03-07T02:01:40.113Z,91.60
2023-03-07T02:04:11.904Z,91.50
2023-03-07T02:06:38.717Z,91.40
2023-03-07T02:09:04.307Z,91.50
2023-03-07T02:11:28.336Z,91.50
2023-03-07T02:13:51.614Z,91.70
2023-03-07T02:16:16.786Z,91.80
2023-03-07T02:18:45.427Z,91.90
2023-03-07T02:21:18.421Z,92.30
2023-03-07T02:23:49.121Z,92.30
2023-03-07T02:26:18.497Z,92.50
2023-03-07T02:28:44.102Z,92.70
2023-03-07T02:31:09.967Z,92.80
2023-03-07T02:33:34.966Z,92.70
2023-03-07T02:36:07.917Z,92.80
2023-03-07T02:38:36.670Z,92.70
2023-03-07T02:41:00.309Z,92.80
2023-03-07T02:43:24.481Z,92.90
2023-03-07T02:45:49.125Z,92.90
2023-03-07T02:48:13.309Z,92.80
2023-03-07T02:50:36.679Z,92.70
2023-03-07T02:53:00.317Z,92.50
2023-03-07T02:55:24.075Z,92.50
2023-03-07T02:57:57.375Z,92.50
2023-03-07T03:00:21.840Z,92.70
2023-03-07T03:02:47.047Z,92.70
2023-03-07T03:05:10.823Z,92.40
2023-03-07T03:07:34.235Z,92.50
2023-03-07T03:09:58.622Z,92.70
2023-03-07T03:12:22.032Z,92.90
2023-03-07T03:14:45.822Z,92.60
2023-03-07T03:17:09.148Z,92.80
2023-03-07T03:19:34.014Z,92.60
2023-03-07T03:21:58.497Z,92.70
2023-03-07T03:24:23.644Z,92.80
2023-03-07T03:26:47.100Z,92.90
2023-03-07T03:29:11.877Z,92.90
2023-03-07T03:31:36.613Z,92.90
2023-03-07T03:34:01.755Z,92.90
2023-03-07T03:36:28.487Z,93.00
2023-03-07T03:38:59.437Z,93.00
2023-03-07T03:41:23.810Z,93.10
2023-03-07T03:43:47.971Z,93.20
2023-03-07T03:46:12.103Z,93.20
2023-03-07T03:48:35.436Z,93.30
2023-03-07T03:51:04.958Z,93.20
2023-03-07T03:53:29.839Z,93.20
2023-03-07T03:56:02.182Z,93.20
2023-03-07T03:58:26.953Z,93.20
2023-03-07T04:00:50.251Z,93.20
2023-03-07T04:03:13.535Z,93.30
2023-03-07T04:05:37.037Z,93.30
2023-03-07T04:08:00.605Z,93.30
2023-03-07T04:10:25.491Z,92.60
2023-03-07T04:12:48.881Z,92.80
2023-03-07T04:15:13.045Z,92.90
2023-03-07T04:17:37.067Z,92.80
2023-03-07T04:20:01.019Z,92.60
2023-03-07T04:22:24.490Z,92.40
2023-03-07T04:24:47.917Z,92.50
2023-03-07T04:27:12.761Z,92.60
2023-03-07T04:29:36.197Z,92.50
2023-03-07T04:32:11.078Z,92.30
2023-03-07T04:34:34.512Z,92.10
2023-03-07T04:36:58.123Z,92.10
2023-03-07T04:39:21.388Z,92.10
2023-03-07T04:41:44.741Z,92.10
2023-03-07T04:44:17.268Z,92.40
2023-03-07T04:46:40.706Z,92.50
2023-03-07T04:49:04.056Z,92.50
2023-03-07T04:51:27.415Z,92.50
2023-03-07T04:53:50.996Z,92.50
2023-03-07T04:56:16.274Z,92.40
2023-03-07T04:58:41.025Z,92.60
2023-03-07T05:01:06.675Z,92.40
2023-03-07T05:03:31.483Z,92.70
2023-03-07T05:05:55.863Z,92.50
2023-03-07T05:08:19.731Z,92.30
2023-03-07T05:10:43.707Z,92.50
2023-03-07T05:13:07.027Z,92.60
2023-03-07T05:15:30.513Z,92.50
2023-03-07T05:17:55.648Z,92.40
2023-03-07T05:20:20.085Z,92.70
2023-03-07T05:22:44.462Z,92.70
2023-03-07T05:25:08.874Z,92.70
2023-03-07T05:27:32.262Z,92.60
2023-03-07T05:29:55.523Z,92.10
2023-03-07T05:32:18.758Z,92.30
2023-03-07T05:34:45.161Z,92.50
2023-03-07T05:37:08.558Z,92.10
2023-03-07T05:39:31.937Z,92.40
2023-03-07T05:41:55.436Z,92.40
2023-03-07T05:44:19.130Z,92.60
2023-03-07T05:46:42.620Z,92.20
2023-03-07T05:49:06.105Z,92.30
2023-03-07T05:51:30.729Z,92.40
2023-03-07T05:53:54.058Z,92.30
2023-03-07T05:56:17.969Z,92.40
2023-03-07T05:58:41.287Z,92.40
2023-03-07T06:01:05.253Z,92.40
2023-03-07T06:03:29.378Z,92.60
2023-03-07T06:05:57.244Z,92.40
2023-03-07T06:08:22.398Z,92.40
2023-03-07T06:10:45.748Z,92.40
2023-03-07T06:13:09.400Z,92.20
2023-03-07T06:15:32.686Z,92.10
2023-03-07T06:18:01.099Z,92.60
2023-03-07T06:20:24.444Z,92.20
2023-03-07T06:22:50.455Z,92.40
2023-03-07T06:25:16.885Z,92.20
2023-03-07T06:27:40.560Z,92.20
2023-03-07T06:30:05.567Z,92.10
2023-03-07T06:32:29.087Z,91.80
2023-03-07T06:34:53.064Z,91.80
2023-03-07T06:37:16.910Z,91.80
2023-03-07T06:39:40.744Z,91.70
2023-03-07T06:42:05.937Z,91.80
2023-03-07T06:44:29.852Z,91.80
2023-03-07T06:46:53.187Z,92.00
2023-03-07T06:49:17.927Z,91.70
2023-03-07T06:51:43.433Z,91.80
2023-03-07T06:54:07.367Z,91.70
2023-03-07T06:56:31.267Z,91.30
2023-03-07T06:58:57.031Z,91.50
2023-03-07T07:01:23.973Z,91.60
2023-03-07T07:03:50.281Z,92.00
2023-03-07T07:06:14.232Z,92.10
2023-03-07T07:08:37.493Z,91.80
2023-03-07T07:11:00.871Z,91.50
2023-03-07T07:13:25.682Z,91.30
2023-03-07T07:15:51.068Z,91.60
2023-03-07T07:18:15.045Z,91.20
2023-03-07T07:20:39.084Z,91.30
2023-03-07T07:23:02.451Z,91.40
2023-03-07T07:25:25.854Z,91.20
2023-03-07T07:27:49.267Z,91.10
2023-03-07T07:30:13.880Z,91.50
2023-03-07T07:32:39.188Z,91.50
2023-03-07T07:35:03.323Z,91.30
2023-03-07T07:37:27.975Z,91.20
2023-03-07T07:39:52.023Z,91.40
2023-03-07T07:42:15.335Z,91.30
2023-03-07T07:44:52.651Z,91.60
2023-03-07T07:47:16.846Z,91.40
2023-03-07T07:49:41.590Z,91.30
2023-03-07T07:52:06.237Z,91.40
2023-03-07T07:54:29.575Z,91.70
2023-03-07T07:56:53.709Z,91.40
2023-03-07T07:59:18.457Z,91.20
2023-03-07T08:01:41.778Z,91.30
2023-03-07T08:04:05.071Z,91.50
2023-03-07T08:06:30.809Z,91.70
2023-03-07T08:08:54.975Z,91.30
2023-03-07T08:11:19.925Z,90.90
2023-03-07T08:13:43.185Z,90.90
2023-03-07T08:16:11.926Z,91.50
2023-03-07T08:18:35.169Z,91.80
2023-03-07T08:21:01.123Z,91.60
2023-03-07T08:23:25.728Z,92.00
2023-03-07T08:25:51.479Z,91.80
2023-03-07T08:28:14.758Z,92.10
2023-03-07T08:30:38.224Z,92.20
2023-03-07T08:33:01.728Z,91.70
2023-03-07T08:35:27.348Z,91.80
2023-03-07T08:37:55.028Z,91.70
2023-03-07T08:40:20.120Z,91.30
2023-03-07T08:42:43.585Z,91.80
2023-03-07T08:45:08.153Z,91.50
2023-03-07T08:47:31.394Z,91.80
2023-03-07T08:49:54.813Z,91.80
2023-03-07T08:52:18.139Z,91.90
2023-03-07T08:54:41.660Z,91.50
2023-03-07T08:57:06.942Z,91.60
2023-03-07T08:59:30.301Z,92.30
2023-03-07T09:01:53.646Z,92.20
2023-03-07T09:04:17.067Z,91.50
2023-03-07T09:06:40.372Z,91.60
2023-03-07T09:09:05.927Z,92.30
2023-03-07T09:11:29.835Z,92.50
2023-03-07T09:13:54.608Z,92.40
2023-03-07T09:16:17.985Z,92.80
2023-03-07T09:18:41.282Z,92.60
2023-03-07T09:21:06.628Z,92.80
2023-03-07T09:23:29.980Z,92.80
2023-03-07T09:25:53.286Z,92.50
2023-03-07T09:28:16.762Z,92.80
2023-03-07T09:30:41.378Z,92.90
2023-03-07T09:33:05.228Z,92.90
2023-03-07T09:35:29.098Z,92.70
2023-03-07T09:37:52.343Z,93.20
2023-03-07T09:40:20.586Z,93.20
2023-03-07T09:42:56.838Z,93.20
2023-03-07T09:45:32.803Z,93.10
2023-03-07T09:49:06.924Z,92.80
2023-03-07T09:51:38.451Z,93.00
2023-03-07T09:54:07.353Z,93.00
2023-03-07T09:56:37.483Z,92.90
2023-03-07T09:59:22.060Z,93.00
2023-03-07T10:01:47.293Z,92.80
2023-03-07T10:04:22.141Z,92.40
2023-03-07T10:06:52.513Z,92.90
2023-03-07T10:09:22.340Z,92.90
2023-03-07T10:12:20.128Z,93.10
2023-03-07T10:15:03.591Z,92.80
2023-03-07T10:17:51.245Z,93.00
2023-03-07T10:20:40.301Z,92.80
2023-03-07T10:23:22.669Z,93.00
2023-03-07T10:25:55.098Z,93.00
2023-03-07T10:28:23.862Z,93.00
2023-03-07T10:30:50.007Z,93.20
2023-03-07T10:33:20.067Z,93.40
2023-03-07T10:35:49.741Z,93.10
2023-03-07T10:38:21.972Z,93.20
2023-03-07T10:40:51.562Z,93.70
2023-03-07T10:43:24.936Z,92.80
2023-03-07T10:45:48.399Z,93.30
2023-03-07T10:48:19.771Z,93.10
2023-03-07T10:50:50.748Z,93.10
2023-03-07T10:53:25.939Z,93.10
2023-03-07T10:55:49.350Z,93.10
2023-03-07T10:58:22.472Z,92.80
2023-03-07T11:00:46.457Z,93.30
2023-03-07T11:03:26.714Z,93.10
2023-03-07T11:05:52.012Z,92.80
2023-03-07T11:08:28.281Z,93.20
2023-03-07T11:10:51.612Z,93.00
2023-03-07T11:13:17.942Z,92.90
2023-03-07T11:15:41.236Z,92.70
2023-03-07T11:18:04.888Z,92.70
2023-03-07T11:20:31.666Z,92.30
2023-03-07T11:23:16.045Z,92.70
2023-03-07T11:25:39.326Z,92.50
2023-03-07T11:28:02.657Z,92.10
2023-03-07T11:30:28.308Z,92.60
2023-03-07T11:33:03.181Z,92.70
2023-03-07T11:35:49.928Z,92.70
2023-03-07T11:38:29.614Z,92.40
2023-03-07T11:40:57.949Z,92.30
2023-03-07T11:43:25.167Z,92.40
2023-03-07T11:45:54.134Z,92.50
2023-03-07T11:48:36.027Z,92.80
2023-03-07T11:50:59.650Z,92.60
2023-03-07T11:53:54.436Z,92.70
2023-03-07T11:56:27.357Z,92.30
2023-03-07T11:59:25.720Z,92.70
2023-03-07T12:01:55.704Z,92.70
2023-03-07T12:05:00.769Z,92.50
2023-03-07T12:07:52.036Z,92.70
2023-03-07T12:10:33.215Z,92.70
2023-03-07T12:13:11.278Z,92.80
2023-03-07T12:15:41.406Z,92.50
2023-03-07T12:18:26.071Z,92.50
2023-03-07T12:21:00.507Z,92.30
2023-03-07T12:23:33.754Z,92.60
2023-03-07T12:26:02.096Z,91.80
2023-03-07T12:28:29.943Z,92.10
2023-03-07T12:31:08.294Z,92.50
2023-03-07T12:33:51.955Z,92.70
2023-03-07T12:36:25.666Z,92.80
2023-03-07T12:38:57.176Z,93.00
2023-03-07T12:41:53.725Z,92.80
2023-03-07T12:44:31.104Z,92.60
2023-03-07T12:47:01.234Z,92.60
2023-03-07T12:49:40.879Z,92.60
2023-03-07T12:52:24.006Z,92.90
2023-03-07T12:54:57.136Z,92.30
2023-03-07T12:57:29.117Z,92.70
2023-03-07T12:59:52.594Z,92.60
2023-03-07T13:02:23.024Z,92.30
2023-03-07T13:04:46.345Z,92.30
2023-03-07T13:07:13.666Z,92.50
2023-03-07T13:09:40.757Z,92.40
2023-03-07T13:12:34.950Z,92.40
2023-03-07T13:15:00.284Z,92.60
2023-03-07T13:17:59.582Z,92.10
2023-03-07T13:20:45.266Z,92.20
2023-03-07T13:23:33.721Z,92.50
2023-03-07T13:26:00.902Z,92.70
2023-03-07T13:28:53.461Z,92.80
2023-03-07T13:31:45.644Z,92.70
2023-03-07T13:34:52.904Z,92.20
2023-03-07T13:37:53.435Z,92.60
2023-03-07T13:40:52.867Z,91.70
2023-03-07T13:43:57.834Z,92.60
2023-03-07T13:47:02.792Z,92.50
2023-03-07T13:49:46.420Z,92.40
2023-03-07T13:52:39.392Z,92.20
2023-03-07T13:55:06.676Z,92.80
2023-03-07T13:57:40.016Z,92.80
2023-03-07T14:00:06.246Z,92.70
2023-03-07T14:02:37.130Z,92.80
2023-03-07T14:05:04.616Z,92.30
2023-03-07T14:07:31.905Z,92.70
2023-03-07T14:09:59.081Z,92.70
2023-03-07T14:12:35.235Z,92.90
2023-03-07T14:15:15.997Z,92.90
2023-03-07T14:17:57.068Z,92.60
2023-03-07T14:20:29.057Z,92.70
2023-03-07T14:23:17.587Z,92.50
2023-03-07T14:25:42.779Z,92.50
2023-03-07T14:28:26.706Z,92.80
2023-03-07T14:30:59.624Z,92.80
2023-03-07T14:33:32.332Z,92.70
2023-03-07T14:35:55.676Z,92.50
2023-03-07T14:38:23.012Z,92.50
2023-03-07T14:41:18.157Z,92.80
2023-03-07T14:43:56.738Z,92.60
2023-03-07T14:46:29.700Z,92.70
2023-03-07T14:49:09.275Z,92.40
2023-03-07T14:51:33.991Z,92.70
2023-03-07T14:53:58.501Z,92.80
2023-03-07T14:56:25.343Z,92.80
2023-03-07T14:58:52.533Z,93.10
2023-03-07T15:01:19.598Z,93.00
2023-03-07T15:03:48.461Z,92.90
2023-03-07T15:06:17.303Z,92.90
2023-03-07T15:08:40.743Z,92.70
2023-03-07T15:11:11.135Z,93.10
2023-03-07T15:13:41.698Z,92.70
2023-03-07T15:16:09.707Z,92.90
2023-03-07T15:18:38.949Z,92.90
2023-03-07T15:21:05.984Z,92.80
2023-03-07T15:23:31.375Z,92.90
2023-03-07T15:25:58.080Z,92.90
2023-03-07T15:28:25.317Z,93.00
2023-03-07T15:30:53.337Z,92.70
2023-03-07T15:33:25.184Z,92.90
2023-03-07T15:36:10.267Z,93.00
2023-03-07T15:38:36.208Z,93.00
2023-03-07T15:41:00.305Z,93.10
2023-03-07T15:43:28.286Z,93.00
2023-03-07T15:46:03.776Z,93.40
2023-03-07T15:48:38.864Z,92.90
2023-03-07T15:51:06.418Z,93.20
2023-03-07T15:53:35.345Z,93.30
2023-03-07T15:56:01.302Z,93.40
2023-03-07T15:58:25.084Z,93.20
2023-03-07T16:00:48.393Z,93.40
2023-03-07T16:03:29.258Z,93.10
2023-03-07T16:05:53.597Z,93.30
2023-03-07T16:08:19.924Z,93.50
2023-03-07T16:10:51.081Z,93.20
2023-03-07T16:13:17.656Z,93.40
2023-03-07T16:15:41.044Z,93.40
2023-03-07T16:18:06.887Z,93.50
2023-03-07T16:20:30.762Z,93.20
2023-03-07T16:22:54.742Z,93.40
2023-03-07T16:25:18.180Z,93.40
2023-03-07T16:27:52.850Z,93.20
2023-03-07T16:30:20.064Z,93.50
2023-03-07T16:32:43.532Z,93.40
2023-03-07T16:35:16.703Z,93.40
2023-03-07T16:37:40.445Z,93.60
2023-03-07T16:40:04.141Z,93.70
2023-03-07T16:42:27.561Z,93.80
2023-03-07T16:44:53.017Z,93.80
2023-03-07T16:47:18.954Z,93.80
2023-03-07T16:49:42.438Z,93.70
2023-03-07T16:52:06.906Z,93.80
2023-03-07T16:54:30.566Z,93.80
2023-03-07T16:56:55.444Z,93.40
2023-03-07T16:59:21.353Z,93.10
2023-03-07T17:01:49.320Z,92.80
2023-03-07T17:04:12.831Z,93.00
2023-03-07T17:06:39.556Z,92.70
2023-03-07T17:09:04.684Z,92.90
2023-03-07T17:11:29.959Z,93.00
2023-03-07T17:13:56.162Z,93.30
2023-03-07T17:16:20.551Z,93.10
2023-03-07T17:18:45.584Z,93.40
2023-03-07T17:21:11.889Z,93.40
2023-03-07T17:23:35.159Z,93.20
2023-03-07T17:25:58.623Z,93.30
2023-03-07T17:28:21.911Z,93.30
2023-03-07T17:30:45.650Z,92.90
2023-03-07T17:33:11.911Z,93.10
2023-03-07T17:35:36.737Z,93.20
2023-03-07T17:37:59.967Z,93.60
2023-03-07T17:40:23.549Z,93.60
2023-03-07T17:42:46.879Z,93.50
2023-03-07T17:45:13.843Z,93.50
2023-03-07T17:47:37.342Z,93.50
2023-03-07T17:50:02.113Z,93.30
2023-03-07T17:52:26.709Z,93.40
2023-03-07T17:54:50.279Z,93.40
2023-03-07T17:57:13.644Z,93.40
2023-03-07T17:59:37.258Z,93.50
2023-03-07T18:02:00.648Z,93.80
2023-03-07T18:04:24.098Z,93.90
2023-03-07T18:06:47.391Z,93.80
2023-03-07T18:09:13.466Z,94.00
2023-03-07T18:11:37.189Z,93.90
2023-03-07T18:14:00.603Z,94.00
2023-03-07T18:16:24.116Z,94.10
2023-03-07T18:18:58.748Z,94.10
2023-03-07T18:21:23.459Z,94.00
2023-03-07T18:23:47.117Z,93.80
2023-03-07T18:26:14.775Z,94.00
2023-03-07T18:28:40.190Z,94.30
2023-03-07T18:31:06.679Z,94.20
2023-03-07T18:33:30.245Z,94.20
2023-03-07T18:35:53.650Z,94.20
2023-03-07T18:38:17.112Z,94.20
2023-03-07T18:40:40.391Z,94.20
2023-03-07T18:43:05.090Z,94.30
2023-03-07T18:45:28.899Z,94.30
2023-03-07T18:47:52.521Z,94.30
2023-03-07T18:50:16.160Z,94.20
2023-03-07T18:52:39.573Z,94.20
2023-03-07T18:55:02.816Z,94.20
2023-03-07T18:57:26.308Z,94.10
2023-03-07T18:59:51.075Z,94.00
2023-03-07T19:02:14.637Z,94.00
2023-03-07T19:04:38.004Z,94.00
2023-03-07T19:07:01.717Z,93.90
2023-03-07T19:09:26.107Z,93.90
2023-03-07T19:11:49.602Z,93.80
2023-03-07T19:14:13.426Z,93.70
2023-03-07T19:16:38.430Z,93.70
2023-03-07T19:19:01.799Z,93.70
2023-03-07T19:21:27.297Z,93.60
2023-03-07T19:23:53.760Z,93.70
2023-03-07T19:26:19.549Z,93.60
2023-03-07T19:28:43.020Z,93.40
2023-03-07T19:31:11.021Z,93.40
2023-03-07T19:33:35.798Z,93.20
2023-03-07T19:36:03.684Z,92.80
2023-03-07T19:38:26.997Z,92.60
2023-03-07T19:40:50.498Z,92.60
2023-03-07T19:43:13.854Z,92.60
2023-03-07T19:45:41.017Z,92.80
2023-03-07T19:48:05.038Z,92.90
2023-03-07T19:50:30.020Z,93.00
2023-03-07T19:52:53.758Z,93.10
2023-03-07T19:55:17.180Z,93.10
2023-03-07T19:57:41.419Z,93.20
2023-03-07T20:00:06.717Z,93.20
2023-03-07T20:02:34.946Z,93.30
2023-03-07T20:04:58.934Z,93.30
2023-03-07T20:07:23.704Z,93.20
2023-03-07T20:09:47.299Z,93.10
2023-03-07T20:12:10.815Z,93.30
2023-03-07T20:14:34.092Z,93.10
2023-03-07T20:16:57.443Z,92.70
2023-03-07T20:19:21.136Z,92.80
2023-03-07T20:21:49.803Z,92.80
2023-03-07T20:24:14.566Z,92.90
2023-03-07T20:26:40.705Z,92.70
2023-03-07T20:29:06.535Z,92.70
2023-03-07T20:31:30.547Z,92.80
2023-03-07T20:33:54.346Z,92.90
2023-03-07T20:36:20.578Z,93.00
2023-03-07T20:38:43.892Z,92.90
2023-03-07T20:41:12.924Z,92.90
2023-03-07T20:43:36.696Z,92.90
2023-03-07T20:46:04.437Z,92.80
2023-03-07T20:48:27.743Z,92.70
2023-03-07T20:50:52.219Z,92.70
2023-03-07T20:53:15.713Z,92.70
2023-03-07T20:55:38.955Z,92.70
2023-03-07T20:58:03.786Z,92.80
2023-03-07T21:00:27.266Z,92.80
2023-03-07T21:03:03.777Z,92.70
2023-03-07T21:05:30.598Z,92.60
2023-03-07T21:07:54.087Z,92.60
2023-03-07T21:10:17.477Z,92.70
2023-03-07T21:12:40.762Z,92.70
2023-03-07T21:15:06.382Z,92.70
2023-03-07T21:17:29.550Z,92.60
2023-03-07T21:19:52.742Z,92.50
2023-03-07T21:22:16.256Z,92.60
2023-03-07T21:24:39.736Z,92.50
2023-03-07T21:27:03.043Z,92.60
2023-03-07T21:29:26.332Z,92.60
2023-03-07T21:31:51.069Z,92.60
2023-03-07T21:34:15.353Z,92.30
2023-03-07T21:36:38.951Z,92.20
2023-03-07T21:39:04.100Z,92.30
2023-03-07T21:41:27.974Z,92.30
2023-03-07T21:43:51.184Z,92.40
2023-03-07T21:46:15.538Z,92.50
2023-03-07T21:48:40.529Z,92.50
2023-03-07T21:51:04.560Z,92.50
2023-03-07T21:53:28.547Z,92.40
2023-03-07T21:55:52.289Z,92.30
2023-03-07T21:58:15.599Z,92.40
2023-03-07T22:00:38.969Z,92.50
2023-03-07T22:03:02.359Z,92.50
2023-03-07T22:05:27.158Z,92.70
2023-03-07T22:07:51.702Z,92.80
2023-03-07T22:10:15.019Z,92.80
2023-03-07T22:12:38.348Z,92.90
2023-03-07T22:15:01.719Z,92.90
2023-03-07T22:17:25.278Z,92.80
2023-03-07T22:19:48.625Z,92.90
2023-03-07T22:22:13.453Z,92.90
2023-03-07T22:24:36.893Z,93.00
2023-03-07T22:27:00.281Z,93.00
2023-03-07T22:29:23.537Z,93.10
2023-03-07T22:31:46.823Z,93.00
2023-03-07T22:34:10.231Z,93.00
2023-03-07T22:36:33.571Z,93.10
2023-03-07T22:38:58.366Z,93.20
2023-03-07T22:41:22.106Z,93.10
2023-03-07T22:43:45.663Z,93.10
2023-03-07T22:46:09.704Z,93.20
2023-03-07T22:48:33.872Z,93.10
2023-03-07T22:50:57.367Z,93.30
2023-03-07T22:53:20.875Z,93.20
2023-03-07T22:55:46.093Z,93.30
2023-03-07T22:58:09.636Z,93.30
2023-03-07T23:00:32.996Z,93.20
2023-03-07T23:02:56.344Z,93.10
2023-03-07T23:05:19.562Z,93.10
2023-03-07T23:07:43.721Z,93.20
2023-03-07T23:10:07.663Z,93.30
2023-03-07T23:12:32.508Z,93.30
2023-03-07T23:14:55.852Z,93.40
2023-03-07T23:17:19.100Z,93.40
2023-03-07T23:19:42.389Z,93.40
2023-03-07T23:22:06.402Z,93.20
2023-03-07T23:24:29.683Z,93.20
2023-03-07T23:26:52.958Z,93.10
2023-03-07T23:29:17.577Z,93.10
2023-03-07T23:31:42.798Z,93.10
2023-03-07T23:34:09.610Z,93.20
2023-03-07T23:36:34.002Z,93.30
2023-03-07T23:38:58.262Z,93.20
2023-03-07T23:41:21.817Z,93.30
2023-03-07T23:43:46.327Z,93.20
2023-03-07T23:46:11.298Z,93.10
2023-03-07T23:48:34.794Z,93.20
2023-03-07T23:50:58.062Z,93.00
2023-03-07T23:53:21.342Z,93.00
2023-03-07T23:55:44.968Z,93.10
2023-03-07T23:58:08.258Z,93.00
